KNGU/NGU METAR and TAF weather

Enter ICAO airport designator
Station Type Date Time Source
KNGU METAR 2021/03/02 16:59 UTC NOAA

KNGU 021659Z 02014KT 10SM SCT260 06/M08 A3032 RMK AO2 SLP268 T00611083 $


Station Type Date Time Source
KNGU Decoded METAR 2021/03/02 16:59 UTC NOAA

Norfolk, Naval Air Station, VA, United States (KNGU) 36-56-01N 076-17-45W 8M
Mar 02, 2021 - 11:59 AM EST / 2021.03.02 1659 UTC
Wind: from the NNE (020 degrees) at 16 MPH (14 KT):0
Visibility: 10 mile(s):0
Sky conditions: partly cloudy
Temperature: 43.0 F (6.1 C)
Dew Point: 17.1 F (-8.3 C)
Relative Humidity: 34%
Pressure (altimeter): 30.32 in. Hg (1026 hPa)
ob: KNGU 021659Z 02014KT 10SM SCT260 06/M08 A3032 RMK AO2 SLP268 T00611083
cycle: 17

Station Type Date Time Source
KNGU TAF 2021/03/02 15:57 UTC NOAA

TAF KNGU 0215/0315 36012G20KT 9999 FEW260 QNH3024INS
BECMG 0218/0220 VRB06KT 9999 FEW260 QNH3017INS
FM030500 19006KT 9999 FEW250 QNH3005INS T07/0221Z T02/0212Z FN20002

Example: see airport list